EEL RIVER CAMP CA US current weather conditions

sailwx.info

Wind from 181 at 6 knots gusting 15

Air temperature 18.3° C
Dewpoint 10.9° C

Last reported at 2014-Oct-20 20:28 UTC.
Time now 2014-Oct-20 21:16 UTC

Location: N 40°08' W 123°49'.
View on Google Maps.

See reports from other nearby stations

  
Tides and Currents Weather Stations Pressure Air Temp Water Temp Dewpoint Dewpoint Depression Visibility Wind Speed Wind Dir Waves Ship Positions
date/time (UTC)wind fromknots sea level pressurealtimeterstation pressurevisibilityair tempwater tempwave heightnotes
2014-Oct-20 20:28 181 6 gusting 15 18.3
2014-Oct-20 19:28 217 6 gusting 11 18.3
2014-Oct-20 18:28 300 2 gusting 6 15.0
2014-Oct-20 17:28 207 2 gusting 5 16.7
2014-Oct-20 16:28 15.0
2014-Oct-20 15:28 145 4 gusting 6 14.4
2014-Oct-20 14:28 348 1 gusting 3 14.4
2014-Oct-20 13:28 15.0
2014-Oct-20 12:28 15.0
2014-Oct-20 11:28 344 1 gusting 4 15.0
2014-Oct-20 10:28 273 4 gusting 6 15.0
2014-Oct-20 09:28 279 1 gusting 3 15.0
2014-Oct-20 08:28 15.0
2014-Oct-20 07:28 15.0
2014-Oct-20 06:28 292 1 gusting 3 15.0
2014-Oct-20 05:28 324 1 gusting 6 16.1
2014-Oct-20 04:28 191 4 gusting 8 17.2
2014-Oct-20 03:28 212 3 gusting 6 17.8
2014-Oct-20 02:28 171 3 gusting 10 17.8
2014-Oct-20 01:28 175 2 gusting 8 18.3
2014-Oct-20 00:28 212 4 gusting 9 20.0
2014-Oct-19 23:28 220 5 gusting 8 20.0
2014-Oct-19 22:28 208 3 gusting 8 20.0
2014-Oct-19 21:28 226 5 gusting 13 18.9
2014-Oct-19 20:28 212 5 gusting 10 18.9
2014-Oct-19 19:28 201 6 gusting 10 18.3
2014-Oct-19 18:28 206 3 gusting 10 17.8
2014-Oct-19 17:28 211 4 gusting 7 17.8
2014-Oct-19 16:28 211 0 gusting 3 17.2
2014-Oct-19 15:28 048 1 gusting 4 15.6
2014-Oct-19 14:28 239 0 gusting 3 15.6
2014-Oct-19 13:28 008 0 gusting 2 15.6
2014-Oct-19 12:28 169 1 gusting 3 16.1
2014-Oct-19 11:28 16.1
2014-Oct-19 10:28 247 2 gusting 5 16.1
2014-Oct-19 09:28 234 1 gusting 2 16.1
2014-Oct-19 08:28 16.7
2014-Oct-19 07:28 277 2 gusting 5 16.7
2014-Oct-19 06:28 16.7
2014-Oct-19 05:28 16.7
2014-Oct-19 04:28 265 1 gusting 4 17.2
2014-Oct-19 03:28 274 1 gusting 2 17.2
2014-Oct-19 02:28 276 0 gusting 3 17.2
2014-Oct-19 01:28 234 2 gusting 6 18.3
2014-Oct-19 00:28 218 4 gusting 7 21.7
2014-Oct-18 23:28 270 6 gusting 13 21.7
2014-Oct-18 22:28 261 7 gusting 12 23.3
2014-Oct-18 21:28 234 4 gusting 7 24.4